Time;durP1;ratioP1;P1;durP2;ratioP2;P2;SDS_P1;SDS_P2;PMS_P1;PMS_P2;Temp;Humidity;BMP_temperature;BMP_pressure;BME280_temperature;BME280_humidity;BME280_pressure;Samples;Min_cycle;Max_cycle;Signal;HPM_P1;HPM_P2
2023/10/18 00:02:23;;;;;;;10.50;10.30;;;6.50;99.90;;;;;;5022100;28;20468;-70
2023/10/18 00:04:50;;;;;;;10.27;10.07;;;6.40;99.90;;;;;;5025480;27;20536;-71
2023/10/18 00:07:20;;;;;;;10.90;10.63;;;6.40;99.90;;;;;;5027399;27;20479;-70
2023/10/18 00:09:46;;;;;;;11.10;10.80;;;6.40;99.90;;;;;;5024973;27;20476;-70
2023/10/18 00:12:16;;;;;;;10.60;10.40;;;6.40;99.90;;;;;;5019881;27;20472;-70
2023/10/18 00:14:45;;;;;;;10.30;10.10;;;6.40;99.90;;;;;;5027235;27;20201;-70
2023/10/18 00:17:12;;;;;;;10.63;10.43;;;6.40;99.90;;;;;;5023130;28;20577;-70
2023/10/18 00:19:39;;;;;;;10.13;9.93;;;6.40;99.90;;;;;;5020136;27;20469;-70
2023/10/18 00:22:09;;;;;;;10.60;10.40;;;6.40;99.90;;;;;;5026197;27;20552;-70
2023/10/18 00:24:36;;;;;;;10.60;10.40;;;6.30;99.90;;;;;;5028747;27;20468;-70
2023/10/18 00:27:04;;;;;;;11.00;10.70;;;6.30;99.90;;;;;;5027588;27;20460;-72
2023/10/18 00:29:31;;;;;;;10.30;10.10;;;6.30;99.90;;;;;;5024521;27;20483;-70
2023/10/18 00:32:00;;;;;;;10.70;10.50;;;6.30;99.90;;;;;;5017329;27;20983;-72
2023/10/18 00:34:28;;;;;;;11.10;10.80;;;6.30;99.90;;;;;;5034182;27;20834;-72
2023/10/18 00:36:55;;;;;;;11.23;10.93;;;6.30;99.90;;;;;;5027916;27;20965;-70
2023/10/18 00:39:27;;;;;;;11.17;10.87;;;6.30;99.90;;;;;;5019122;27;20465;-71
2023/10/18 00:41:54;;;;;;;10.83;10.57;;;6.20;99.90;;;;;;5025437;27;20482;-72
2023/10/18 00:44:22;;;;;;;10.93;10.63;;;6.30;99.90;;;;;;5020437;27;20485;-74
2023/10/18 00:46:52;;;;;;;11.10;10.80;;;6.30;99.90;;;;;;5022438;28;20492;-72
2023/10/18 00:49:20;;;;;;;10.97;10.67;;;6.40;99.90;;;;;;5023731;27;20453;-70
2023/10/18 00:51:49;;;;;;;10.60;10.40;;;6.50;99.90;;;;;;5017684;27;20499;-71
2023/10/18 00:54:19;;;;;;;11.27;10.97;;;6.60;99.90;;;;;;5020014;27;20942;-73
2023/10/18 00:56:46;;;;;;;10.53;10.33;;;6.60;99.90;;;;;;5017216;27;20465;-71
2023/10/18 00:59:26;;;;;;;10.93;10.67;;;6.60;99.90;;;;;;5068190;27;20453;-71
2023/10/18 01:01:58;;;;;;;11.50;11.20;;;6.60;99.90;;;;;;5036636;27;20892;-71
2023/10/18 01:04:29;;;;;;;11.17;10.87;;;6.60;99.90;;;;;;5026170;27;20832;-70
2023/10/18 01:06:57;;;;;;;11.70;11.40;;;6.60;99.90;;;;;;5025235;27;20998;-72
2023/10/18 01:09:26;;;;;;;11.57;11.27;;;6.60;99.90;;;;;;5083500;27;20979;-72
2023/10/18 01:11:54;;;;;;;11.07;10.77;;;6.60;99.90;;;;;;5010387;27;20503;-71
2023/10/18 01:14:25;;;;;;;11.90;11.60;;;6.60;99.90;;;;;;5038024;27;20694;-72
2023/10/18 01:16:54;;;;;;;11.50;11.20;;;6.60;99.90;;;;;;5025702;27;20826;-70
2023/10/18 01:19:22;;;;;;;11.80;11.50;;;6.70;99.90;;;;;;5031057;27;20458;-73
2023/10/18 01:21:51;;;;;;;11.60;11.30;;;6.60;99.90;;;;;;5026424;27;20467;-71
2023/10/18 01:24:18;;;;;;;11.80;11.50;;;6.60;99.90;;;;;;5032935;27;20874;-72
2023/10/18 01:26:47;;;;;;;12.17;11.87;;;6.60;99.90;;;;;;5018141;27;20475;-73
2023/10/18 01:29:15;;;;;;;12.30;12.00;;;6.60;99.90;;;;;;5023081;27;20462;-72
2023/10/18 01:31:45;;;;;;;12.10;11.80;;;6.70;99.90;;;;;;5017882;27;21002;-70
2023/10/18 01:34:12;;;;;;;11.87;11.57;;;6.70;99.90;;;;;;5035709;27;20938;-73
2023/10/18 01:36:41;;;;;;;12.03;11.73;;;6.60;99.90;;;;;;5051646;27;20471;-73
2023/10/18 01:39:18;;;;;;;12.10;11.80;;;6.60;99.90;;;;;;5031211;27;20455;-70
2023/10/18 01:41:48;;;;;;;12.47;12.17;;;6.60;99.90;;;;;;5026727;28;20466;-71
2023/10/18 01:44:27;;;;;;;12.53;12.23;;;6.70;99.90;;;;;;5019010;27;20528;-70
2023/10/18 01:46:55;;;;;;;11.87;11.57;;;6.60;99.90;;;;;;5027879;27;20469;-70
2023/10/18 01:49:25;;;;;;;12.20;11.90;;;6.60;99.90;;;;;;5026396;27;20558;-70
2023/10/18 01:51:54;;;;;;;12.20;11.90;;;6.60;99.90;;;;;;5057537;27;20499;-70
2023/10/18 01:54:25;;;;;;;11.83;11.53;;;6.50;99.90;;;;;;5025583;27;20557;-70
2023/10/18 01:56:57;;;;;;;11.57;11.27;;;6.50;99.90;;;;;;5026472;27;20460;-70
2023/10/18 01:59:27;;;;;;;11.63;11.33;;;6.60;99.90;;;;;;5022860;28;20886;-70
2023/10/18 02:01:56;;;;;;;11.80;11.50;;;6.60;99.90;;;;;;5008311;28;20453;-71
2023/10/18 02:04:25;;;;;;;11.87;11.57;;;6.60;99.90;;;;;;5018000;28;20580;-70
2023/10/18 02:06:57;;;;;;;11.97;11.67;;;6.50;99.90;;;;;;5018179;27;20468;-71
2023/10/18 02:09:25;;;;;;;12.13;11.83;;;6.60;99.90;;;;;;5026218;27;20449;-70
2023/10/18 02:11:53;;;;;;;12.10;11.80;;;6.70;99.90;;;;;;5024835;27;20983;-71
2023/10/18 02:14:20;;;;;;;11.67;11.37;;;6.70;99.90;;;;;;5034156;27;20472;-72
2023/10/18 02:16:47;;;;;;;11.80;11.50;;;6.70;99.90;;;;;;5030665;27;21422;-70
2023/10/18 02:19:18;;;;;;;12.30;12.00;;;6.80;99.90;;;;;;5031020;27;20489;-70
2023/10/18 02:21:47;;;;;;;11.60;11.30;;;6.80;99.90;;;;;;5064247;27;20519;-70
2023/10/18 02:24:15;;;;;;;12.00;11.70;;;6.80;99.90;;;;;;5062976;27;20474;-69
2023/10/18 02:26:53;;;;;;;11.97;11.67;;;6.80;99.90;;;;;;5063090;27;20948;-70
2023/10/18 02:29:22;;;;;;;12.00;11.70;;;6.90;99.90;;;;;;5030357;27;20460;-69
2023/10/18 02:31:49;;;;;;;11.83;11.53;;;6.90;99.90;;;;;;5015108;28;20481;-70
2023/10/18 02:34:16;;;;;;;12.13;11.83;;;6.90;99.90;;;;;;5026552;28;20620;-69
2023/10/18 02:36:47;;;;;;;12.40;12.10;;;6.90;99.90;;;;;;5032251;27;20459;-70
2023/10/18 02:39:21;;;;;;;12.60;12.30;;;6.90;99.90;;;;;;5026943;28;20457;-69
2023/10/18 02:41:49;;;;;;;12.20;11.90;;;6.90;99.90;;;;;;5021059;28;20463;-69
2023/10/18 02:44:22;;;;;;;12.30;12.00;;;6.90;99.90;;;;;;5017446;28;20500;-70
2023/10/18 02:46:54;;;;;;;12.53;12.23;;;6.90;99.90;;;;;;5058565;28;20465;-70
2023/10/18 02:49:23;;;;;;;12.00;11.70;;;6.90;99.90;;;;;;5029300;28;20536;-70
2023/10/18 02:51:50;;;;;;;12.17;11.87;;;6.90;99.90;;;;;;5022033;28;20501;-70
2023/10/18 02:54:21;;;;;;;12.27;11.97;;;6.80;99.90;;;;;;5015760;28;20978;-70
2023/10/18 02:56:52;;;;;;;12.30;12.00;;;6.90;99.90;;;;;;5025116;28;21202;-70
2023/10/18 02:59:23;;;;;;;12.50;12.20;;;6.80;99.90;;;;;;5019084;28;20457;-70
2023/10/18 03:01:52;;;;;;;12.50;12.20;;;6.90;99.90;;;;;;5023360;28;20946;-70
2023/10/18 03:04:22;;;;;;;12.40;12.10;;;6.90;99.90;;;;;;5022277;28;20457;-70
2023/10/18 03:06:50;;;;;;;12.80;12.40;;;6.80;99.90;;;;;;5018950;28;20474;-70
2023/10/18 03:09:38;;;;;;;12.80;12.40;;;6.80;99.90;;;;;;5025132;28;20549;-70
2023/10/18 03:12:13;;;;;;;12.70;12.30;;;6.80;99.90;;;;;;5022080;28;20477;-69
2023/10/18 03:14:41;;;;;;;12.30;12.00;;;6.80;99.90;;;;;;5031738;28;20469;-69
2023/10/18 03:17:18;;;;;;;12.93;12.53;;;6.70;99.90;;;;;;5025455;28;20526;-69
2023/10/18 03:19:50;;;;;;;13.30;12.90;;;6.70;99.90;;;;;;5025092;28;20837;-69
2023/10/18 03:22:19;;;;;;;12.80;12.40;;;6.80;99.90;;;;;;5008650;28;20469;-70
2023/10/18 03:24:47;;;;;;;12.30;12.00;;;6.80;99.90;;;;;;5023015;28;20870;-70
2023/10/18 03:27:15;;;;;;;13.00;12.60;;;6.90;99.90;;;;;;5020208;28;20460;-70
2023/10/18 03:29:45;;;;;;;12.57;12.17;;;6.70;99.90;;;;;;5024245;28;20541;-70
2023/10/18 03:32:19;;;;;;;12.73;12.33;;;6.70;99.90;;;;;;5039370;28;20550;-70
2023/10/18 03:34:47;;;;;;;13.10;12.70;;;6.70;99.90;;;;;;5017088;28;21279;-70
2023/10/18 03:37:21;;;;;;;12.10;11.80;;;6.80;99.90;;;;;;5024191;28;20469;-70
2023/10/18 03:39:49;;;;;;;12.30;12.00;;;6.80;99.90;;;;;;5045224;27;20961;-70
2023/10/18 03:42:30;;;;;;;12.67;12.30;;;6.70;99.90;;;;;;5025191;27;20461;-71
2023/10/18 03:44:58;;;;;;;12.13;11.83;;;6.70;99.90;;;;;;5020941;27;20492;-71
2023/10/18 03:47:26;;;;;;;12.40;12.10;;;6.70;99.90;;;;;;5019255;27;21166;-70
2023/10/18 03:49:54;;;;;;;12.27;11.97;;;6.70;99.90;;;;;;5074449;27;20894;-71
2023/10/18 03:52:21;;;;;;;12.73;12.37;;;6.80;99.90;;;;;;5022129;27;20497;-70
2023/10/18 03:55:04;;;;;;;12.17;11.87;;;6.70;99.90;;;;;;5026914;27;20537;-71
2023/10/18 03:57:37;;;;;;;12.63;12.23;;;6.80;99.90;;;;;;5022537;28;20970;-71
2023/10/18 04:00:28;;;;;;;12.50;12.20;;;6.80;99.90;;;;;;5023955;28;20865;-70
2023/10/18 04:02:59;;;;;;;13.00;12.60;;;6.90;99.90;;;;;;5017257;27;20471;-70
2023/10/18 04:05:40;;;;;;;13.20;12.80;;;6.80;99.90;;;;;;5029963;27;20458;-70
2023/10/18 04:08:08;;;;;;;13.10;12.70;;;6.80;99.90;;;;;;5017383;27;20457;-71
2023/10/18 04:10:36;;;;;;;12.90;12.50;;;6.80;99.90;;;;;;5032094;27;20460;-71
2023/10/18 04:13:05;;;;;;;12.60;12.20;;;6.80;99.90;;;;;;5060547;27;20573;-71
2023/10/18 04:15:37;;;;;;;12.70;12.30;;;6.80;99.90;;;;;;5019909;27;20492;-71
2023/10/18 04:18:12;;;;;;;13.30;12.90;;;6.80;99.90;;;;;;5040838;27;21004;-71
2023/10/18 04:20:47;;;;;;;13.30;12.90;;;6.80;99.90;;;;;;5027628;27;20459;-71
2023/10/18 04:23:19;;;;;;;12.87;12.47;;;6.90;99.90;;;;;;5030873;27;20550;-70
2023/10/18 04:25:58;;;;;;;13.00;12.60;;;6.90;99.90;;;;;;5024484;27;20498;-71
2023/10/18 04:28:26;;;;;;;13.07;12.67;;;6.90;99.90;;;;;;5049962;27;20452;-71
2023/10/18 04:30:59;;;;;;;12.60;12.27;;;6.90;99.90;;;;;;5017499;27;20824;-71
2023/10/18 04:33:28;;;;;;;13.10;12.70;;;7.00;99.90;;;;;;5021764;27;20473;-71
2023/10/18 04:35:58;;;;;;;13.20;12.80;;;7.00;99.90;;;;;;5021148;27;20542;-71
2023/10/18 04:38:30;;;;;;;12.83;12.43;;;7.00;99.90;;;;;;5024740;27;20953;-71
2023/10/18 04:41:06;;;;;;;13.20;12.80;;;7.00;99.90;;;;;;5034996;27;20452;-71
2023/10/18 04:43:33;;;;;;;13.20;12.80;;;7.00;99.90;;;;;;5039783;27;20476;-70
2023/10/18 04:46:07;;;;;;;13.20;12.80;;;7.00;99.90;;;;;;5038453;27;20822;-70
2023/10/18 04:51:28;;;;;;;13.20;12.80;;;7.00;99.90;;;;;;5033519;27;20459;-70
2023/10/18 04:53:57;;;;;;;13.00;12.60;;;6.90;99.90;;;;;;5021916;27;20816;-73
2023/10/18 04:56:29;;;;;;;13.20;12.80;;;6.90;99.90;;;;;;5029464;27;20469;-74
2023/10/18 04:58:59;;;;;;;13.10;12.70;;;6.90;99.90;;;;;;5021148;27;21176;-72
2023/10/18 05:01:33;;;;;;;13.50;13.10;;;6.90;99.90;;;;;;5024159;27;20461;-72
2023/10/18 05:04:18;;;;;;;13.57;13.17;;;6.90;99.90;;;;;;5019115;28;21067;-73
2023/10/18 05:06:46;;;;;;;13.70;13.30;;;6.90;99.90;;;;;;5011564;27;20503;-73
2023/10/18 05:09:13;;;;;;;14.00;13.50;;;6.90;99.90;;;;;;5025552;27;20472;-70
2023/10/18 05:11:47;;;;;;;13.50;13.10;;;6.90;99.90;;;;;;5057331;27;20815;-74
2023/10/18 05:14:19;;;;;;;13.50;13.10;;;6.80;99.90;;;;;;5023604;27;20460;-73
2023/10/18 05:16:46;;;;;;;13.40;13.00;;;6.80;99.90;;;;;;5039469;27;20453;-71
2023/10/18 05:19:13;;;;;;;13.43;13.03;;;6.80;99.90;;;;;;5020619;28;20550;-74
2023/10/18 05:21:40;;;;;;;13.30;12.90;;;6.80;99.90;;;;;;5016266;27;20484;-71
2023/10/18 05:24:16;;;;;;;13.50;13.10;;;6.80;99.90;;;;;;5025685;27;20468;-71
2023/10/18 05:26:53;;;;;;;13.40;13.00;;;6.70;99.90;;;;;;5017715;27;20808;-69
2023/10/18 05:29:22;;;;;;;13.23;12.83;;;6.70;99.90;;;;;;5019562;27;21225;-69
2023/10/18 05:32:05;;;;;;;12.90;12.50;;;6.80;99.90;;;;;;5021842;27;20492;-71
2023/10/18 05:37:15;;;;;;;13.30;12.90;;;6.80;99.90;;;;;;5018967;27;20462;-70
2023/10/18 05:40:42;;;;;;;13.60;13.20;;;6.80;99.90;;;;;;5024798;27;20461;-70
2023/10/18 05:42:46;;;;;;;13.53;13.13;;;6.80;99.90;;;;;;5029005;27;20891;-69
2023/10/18 05:45:13;;;;;;;13.23;12.83;;;6.80;99.90;;;;;;5022429;27;20561;-71
2023/10/18 05:47:42;;;;;;;13.40;13.00;;;6.80;99.90;;;;;;5018688;27;20462;-72
2023/10/18 05:50:12;;;;;;;13.40;13.00;;;6.80;99.90;;;;;;5035379;27;20542;-71
2023/10/18 05:52:44;;;;;;;13.33;12.93;;;6.70;99.90;;;;;;5057437;27;20494;-70
2023/10/18 05:55:12;;;;;;;13.73;13.33;;;6.70;99.90;;;;;;5020236;28;20453;-70
2023/10/18 05:57:40;;;;;;;13.40;13.00;;;6.70;99.90;;;;;;5019207;27;20980;-72
2023/10/18 06:00:16;;;;;;;13.23;12.83;;;6.70;99.90;;;;;;5013460;27;20966;-70
2023/10/18 06:02:43;;;;;;;13.30;12.90;;;6.70;99.90;;;;;;5019931;27;20461;-71
2023/10/18 06:05:11;;;;;;;13.80;13.40;;;6.70;99.90;;;;;;5019064;27;20473;-70
2023/10/18 06:07:38;;;;;;;13.20;12.80;;;6.70;99.90;;;;;;5013736;28;20681;-69
2023/10/18 06:10:13;;;;;;;13.57;13.17;;;6.70;99.90;;;;;;5016120;27;20542;-72
2023/10/18 06:12:46;;;;;;;13.20;12.80;;;6.70;99.90;;;;;;5009033;27;20582;-72
2023/10/18 06:15:14;;;;;;;12.93;12.53;;;6.70;99.90;;;;;;5039205;27;20543;-72
2023/10/18 06:17:53;;;;;;;13.03;12.63;;;6.70;99.90;;;;;;5043565;27;20508;-70
2023/10/18 06:20:28;;;;;;;13.03;12.63;;;6.70;99.90;;;;;;5050914;27;20470;-69
2023/10/18 06:23:07;;;;;;;13.47;13.07;;;6.70;99.90;;;;;;5034569;27;20461;-73
2023/10/18 06:25:36;;;;;;;12.70;12.40;;;6.70;99.90;;;;;;5064463;27;20463;-71
2023/10/18 06:28:07;;;;;;;12.90;12.50;;;6.80;99.90;;;;;;5045140;27;21536;-72
2023/10/18 06:30:39;;;;;;;12.80;12.40;;;6.80;99.90;;;;;;5039741;27;20773;-71
2023/10/18 06:33:07;;;;;;;12.83;12.43;;;6.80;99.90;;;;;;5069466;27;20893;-71
2023/10/18 06:35:45;;;;;;;12.77;12.40;;;6.80;99.90;;;;;;5037474;27;20595;-69
2023/10/18 06:38:18;;;;;;;12.97;12.57;;;6.90;99.90;;;;;;5017296;27;20863;-72
2023/10/18 06:40:50;;;;;;;12.93;12.53;;;6.90;99.90;;;;;;5023664;28;20540;-70
2023/10/18 06:43:20;;;;;;;13.23;12.83;;;6.90;99.90;;;;;;5016318;28;20966;-72
2023/10/18 06:45:50;;;;;;;13.07;12.67;;;7.00;99.90;;;;;;5017826;28;20500;-70
2023/10/18 06:48:17;;;;;;;13.07;12.67;;;7.00;99.90;;;;;;5024311;28;20461;-73
2023/10/18 06:50:46;;;;;;;13.03;12.63;;;7.10;99.90;;;;;;5018774;28;20950;-72
2023/10/18 06:53:14;;;;;;;13.60;13.20;;;7.10;99.90;;;;;;5021634;28;20485;-72
2023/10/18 06:55:44;;;;;;;13.87;13.47;;;7.30;99.90;;;;;;5014089;28;20453;-72
2023/10/18 06:58:13;;;;;;;14.07;13.67;;;7.30;99.90;;;;;;5024900;28;20484;-70
2023/10/18 07:00:46;;;;;;;13.80;13.40;;;7.30;99.90;;;;;;5023215;28;20514;-69
2023/10/18 07:03:17;;;;;;;13.43;13.03;;;7.40;99.90;;;;;;5018539;28;20497;-72
2023/10/18 07:05:49;;;;;;;13.70;13.30;;;7.50;99.90;;;;;;5021123;28;20460;-68
2023/10/18 07:08:25;;;;;;;13.20;12.80;;;7.50;99.90;;;;;;5017795;28;20948;-72
2023/10/18 07:10:56;;;;;;;13.60;13.20;;;7.60;99.90;;;;;;5027006;28;20567;-70
2023/10/18 07:13:33;;;;;;;13.13;12.73;;;7.70;99.90;;;;;;5024502;27;20485;-69
2023/10/18 07:16:05;;;;;;;13.00;12.60;;;7.80;99.90;;;;;;5026902;27;20517;-72
2023/10/18 07:18:33;;;;;;;13.03;12.63;;;7.80;99.90;;;;;;5011824;27;20876;-73
2023/10/18 07:21:05;;;;;;;13.70;13.30;;;7.90;99.90;;;;;;5017097;27;20558;-73
2023/10/18 07:23:36;;;;;;;13.87;13.47;;;8.00;99.90;;;;;;5025427;27;20587;-73
2023/10/18 07:26:07;;;;;;;13.80;13.40;;;8.10;99.90;;;;;;5017592;27;20479;-72
2023/10/18 07:28:36;;;;;;;14.10;13.70;;;8.10;99.90;;;;;;5026064;27;20556;-72
2023/10/18 07:31:09;;;;;;;14.10;13.70;;;8.10;99.90;;;;;;5028339;27;20972;-69
2023/10/18 07:33:41;;;;;;;13.90;13.50;;;8.10;99.90;;;;;;5045293;27;20730;-71
2023/10/18 07:36:09;;;;;;;13.50;13.10;;;8.30;99.90;;;;;;5014136;27;20985;-72
2023/10/18 07:38:39;;;;;;;13.50;13.10;;;8.40;99.90;;;;;;5024740;28;20457;-72
2023/10/18 07:41:08;;;;;;;13.80;13.40;;;8.50;99.90;;;;;;5019932;27;20470;-69
2023/10/18 07:43:36;;;;;;;14.50;14.00;;;8.50;99.90;;;;;;5016042;27;20541;-69
2023/10/18 07:46:16;;;;;;;14.03;13.53;;;8.60;99.90;;;;;;5014591;27;20500;-69
2023/10/18 07:48:47;;;;;;;14.30;13.80;;;8.70;99.90;;;;;;5022984;28;21045;-70
2023/10/18 07:51:24;;;;;;;14.53;14.03;;;8.80;99.90;;;;;;5017876;28;20605;-70
2023/10/18 07:53:53;;;;;;;14.17;13.67;;;8.90;99.90;;;;;;5020977;28;20879;-69
2023/10/18 07:56:26;;;;;;;13.67;13.27;;;9.00;99.90;;;;;;5022209;27;20804;-69
2023/10/18 07:58:55;;;;;;;14.20;13.70;;;9.20;99.90;;;;;;5018167;27;20471;-69
2023/10/18 08:01:51;;;;;;;14.10;13.60;;;9.30;99.90;;;;;;5011875;28;20758;-69
2023/10/18 08:04:17;;;;;;;13.73;13.33;;;9.40;99.90;;;;;;5020678;28;20954;-69
2023/10/18 08:06:45;;;;;;;14.10;13.60;;;9.40;99.90;;;;;;5021002;27;20505;-69
2023/10/18 08:09:12;;;;;;;13.23;12.83;;;9.50;99.90;;;;;;5016411;27;20476;-69
2023/10/18 08:11:39;;;;;;;14.20;13.80;;;9.60;99.90;;;;;;5025626;28;20474;-69
2023/10/18 08:14:16;;;;;;;14.20;13.80;;;9.60;99.90;;;;;;5017837;28;20689;-69
2023/10/18 08:16:44;;;;;;;14.20;13.80;;;9.80;99.90;;;;;;5023118;27;20493;-70
2023/10/18 08:19:11;;;;;;;14.40;13.90;;;9.90;99.90;;;;;;5012451;27;20853;-69
2023/10/18 08:21:38;;;;;;;13.50;13.10;;;10.00;99.90;;;;;;5013689;27;20473;-70
2023/10/18 08:24:19;;;;;;;14.10;13.70;;;10.10;99.90;;;;;;5022922;27;20461;-71
2023/10/18 08:26:51;;;;;;;13.60;13.20;;;10.10;99.90;;;;;;5016255;27;20472;-69
2023/10/18 08:29:18;;;;;;;14.40;13.90;;;10.20;99.90;;;;;;5016539;28;20473;-71
2023/10/18 08:31:55;;;;;;;13.80;13.40;;;10.40;99.90;;;;;;5020153;27;21032;-72
2023/10/18 08:34:23;;;;;;;15.10;14.60;;;10.40;99.90;;;;;;5015741;28;20528;-69
2023/10/18 08:36:54;;;;;;;14.30;13.90;;;10.50;99.90;;;;;;5034842;27;20746;-69
2023/10/18 08:39:25;;;;;;;13.80;13.40;;;10.70;99.90;;;;;;5022637;28;20458;-69
2023/10/18 08:41:59;;;;;;;14.43;13.93;;;10.80;99.90;;;;;;5014443;27;20611;-71
2023/10/18 08:44:28;;;;;;;15.07;14.57;;;10.70;99.90;;;;;;5014977;28;20834;-69
2023/10/18 08:47:04;;;;;;;15.00;14.50;;;10.80;99.90;;;;;;5020437;28;20493;-71
2023/10/18 08:49:34;;;;;;;14.00;13.60;;;10.70;99.90;;;;;;5016758;28;20944;-69
2023/10/18 08:52:06;;;;;;;14.00;13.60;;;10.70;99.90;;;;;;5021398;27;20457;-70
2023/10/18 08:54:35;;;;;;;14.50;14.10;;;10.80;99.90;;;;;;5013331;28;20882;-70
2023/10/18 08:57:07;;;;;;;13.87;13.47;;;10.90;99.90;;;;;;5009321;28;20513;-72
2023/10/18 08:59:45;;;;;;;14.90;14.40;;;10.90;99.90;;;;;;5017508;28;20560;-69
2023/10/18 09:02:19;;;;;;;14.80;14.30;;;11.20;99.90;;;;;;5028290;27;20875;-69
2023/10/18 09:04:47;;;;;;;13.87;13.47;;;11.20;99.90;;;;;;5013347;28;20453;-69
2023/10/18 09:07:21;;;;;;;13.63;13.23;;;11.40;99.90;;;;;;5012947;28;20477;-68
2023/10/18 09:09:55;;;;;;;13.87;13.47;;;11.50;99.90;;;;;;5029106;27;20978;-70
2023/10/18 09:12:36;;;;;;;14.53;14.10;;;11.60;99.90;;;;;;5022351;28;20465;-72
2023/10/18 09:17:46;;;;;;;13.57;13.17;;;11.80;99.90;;;;;;5014123;28;20461;-69
2023/10/18 09:20:15;;;;;;;14.20;13.80;;;11.90;99.90;;;;;;5024482;27;20464;-72
2023/10/18 09:22:45;;;;;;;14.30;13.90;;;12.10;99.90;;;;;;5015547;28;20478;-72
2023/10/18 09:25:13;;;;;;;14.63;14.13;;;12.20;99.90;;;;;;5024142;28;20448;-69
2023/10/18 09:27:40;;;;;;;14.23;13.83;;;12.20;99.90;;;;;;5019114;28;21005;-70
2023/10/18 09:30:10;;;;;;;15.07;14.57;;;12.50;99.90;;;;;;5021322;28;20532;-70
2023/10/18 09:32:38;;;;;;;13.80;13.40;;;12.60;99.90;;;;;;5017354;28;20565;-72
2023/10/18 09:35:08;;;;;;;14.30;13.90;;;12.60;99.90;;;;;;5013313;28;20513;-71
2023/10/18 09:37:36;;;;;;;15.43;14.93;;;12.80;99.90;;;;;;5009466;27;20962;-70
2023/10/18 09:40:04;;;;;;;14.40;14.00;;;12.80;99.90;;;;;;5008946;28;20499;-71
2023/10/18 09:42:32;;;;;;;14.67;14.17;;;12.80;99.90;;;;;;5014241;28;20901;-68
2023/10/18 09:44:59;;;;;;;13.97;13.57;;;13.10;99.90;;;;;;5017628;28;21034;-69
2023/10/18 09:47:28;;;;;;;13.67;13.27;;;13.30;99.90;;;;;;5020887;28;20454;-71
2023/10/18 09:49:56;;;;;;;13.80;13.40;;;13.20;99.90;;;;;;5010907;28;20536;-69
2023/10/18 09:52:30;;;;;;;13.47;13.07;;;13.30;99.90;;;;;;5014256;27;20868;-69
2023/10/18 09:55:03;;;;;;;14.13;13.73;;;13.50;99.90;;;;;;5012457;28;20490;-69
2023/10/18 09:57:35;;;;;;;14.60;14.20;;;13.70;99.90;;;;;;5013483;27;20465;-69
2023/10/18 10:00:11;;;;;;;13.67;13.27;;;13.80;99.90;;;;;;5012345;28;20463;-68
2023/10/18 10:02:40;;;;;;;13.20;12.80;;;13.80;99.90;;;;;;5019227;28;20459;-68
2023/10/18 10:05:24;;;;;;;13.07;12.67;;;14.10;99.90;;;;;;5015099;28;20889;-71
2023/10/18 10:07:53;;;;;;;13.33;12.93;;;14.50;99.90;;;;;;5040947;27;20957;-71
2023/10/18 10:10:24;;;;;;;13.83;13.43;;;14.60;99.90;;;;;;5007331;28;20497;-71
2023/10/18 10:12:57;;;;;;;14.13;13.73;;;14.90;99.90;;;;;;5029831;27;20567;-72
2023/10/18 10:15:28;;;;;;;13.53;13.13;;;15.10;99.90;;;;;;5009769;28;21055;-69
2023/10/18 10:17:58;;;;;;;13.40;13.00;;;15.30;99.90;;;;;;5029645;27;20466;-72
2023/10/18 10:20:31;;;;;;;14.90;14.40;;;15.40;99.90;;;;;;5012688;28;20888;-72
2023/10/18 10:23:04;;;;;;;13.67;13.27;;;15.50;99.90;;;;;;5021985;27;20461;-69
2023/10/18 10:25:32;;;;;;;13.90;13.50;;;15.50;99.90;;;;;;5014309;28;20548;-73
2023/10/18 10:28:13;;;;;;;13.73;13.33;;;15.60;99.90;;;;;;5015436;28;20468;-69
2023/10/18 10:30:43;;;;;;;14.00;13.60;;;15.60;99.90;;;;;;5010301;28;20464;-72
2023/10/18 10:33:13;;;;;;;14.30;13.90;;;15.40;99.90;;;;;;5021716;28;20488;-70
2023/10/18 10:35:45;;;;;;;14.90;14.40;;;15.70;99.90;;;;;;5014691;28;21037;-70
2023/10/18 10:38:18;;;;;;;14.03;13.63;;;16.10;99.90;;;;;;5018271;28;20502;-69
2023/10/18 10:40:48;;;;;;;13.80;13.40;;;16.00;99.90;;;;;;5012868;28;20466;-69
2023/10/18 10:43:18;;;;;;;15.03;14.53;;;15.90;99.90;;;;;;5018195;28;20483;-69
2023/10/18 10:45:54;;;;;;;14.70;14.20;;;15.70;99.90;;;;;;5014840;28;20491;-71
2023/10/18 10:48:38;;;;;;;14.00;13.60;;;15.60;99.90;;;;;;5012488;28;20935;-69
2023/10/18 10:51:13;;;;;;;13.70;13.30;;;15.70;99.90;;;;;;5012171;28;20836;-72
2023/10/18 10:53:44;;;;;;;13.53;13.13;;;15.90;99.90;;;;;;5014187;28;20509;-69
2023/10/18 10:56:18;;;;;;;13.50;13.10;;;16.20;99.90;;;;;;5010430;28;20860;-69
2023/10/18 10:58:54;;;;;;;13.57;13.17;;;16.30;99.90;;;;;;5017568;28;20524;-71
2023/10/18 11:01:31;;;;;;;13.70;13.30;;;16.40;99.90;;;;;;5015961;28;20543;-70
2023/10/18 11:04:10;;;;;;;15.47;14.97;;;16.60;99.90;;;;;;5007107;28;20605;-71
2023/10/18 11:06:43;;;;;;;15.57;15.07;;;16.70;99.90;;;;;;5011278;28;20470;-69
2023/10/18 11:09:16;;;;;;;15.30;14.80;;;16.60;99.90;;;;;;5020752;28;20819;-72
2023/10/18 11:11:45;;;;;;;14.93;14.43;;;16.60;99.90;;;;;;5022110;28;20461;-70
2023/10/18 11:14:18;;;;;;;15.97;15.47;;;16.80;99.90;;;;;;5022512;28;20489;-70
2023/10/18 11:16:46;;;;;;;15.33;14.83;;;16.40;99.90;;;;;;5013405;28;20469;-72
2023/10/18 11:19:15;;;;;;;15.03;14.53;;;16.40;99.90;;;;;;5011729;28;20476;-71
2023/10/18 11:21:43;;;;;;;15.20;14.70;;;16.50;99.90;;;;;;5016585;28;20472;-69
2023/10/18 11:24:13;;;;;;;15.30;14.80;;;16.60;99.90;;;;;;5018001;28;20488;-69
2023/10/18 11:26:41;;;;;;;15.70;15.20;;;16.20;99.90;;;;;;5017013;28;20555;-72
2023/10/18 11:29:07;;;;;;;15.30;14.80;;;16.40;99.90;;;;;;5011180;28;20561;-69
2023/10/18 11:31:37;;;;;;;15.13;14.63;;;16.60;99.90;;;;;;5008258;28;20553;-69
2023/10/18 11:34:06;;;;;;;15.57;15.07;;;16.60;99.90;;;;;;5017777;28;20485;-69
2023/10/18 11:36:35;;;;;;;15.50;15.00;;;16.90;99.90;;;;;;5013463;28;20477;-68
2023/10/18 11:39:18;;;;;;;15.00;14.50;;;17.20;99.90;;;;;;5014569;28;20956;-71
2023/10/18 11:41:52;;;;;;;15.80;15.30;;;17.00;99.90;;;;;;5012669;28;20851;-68
2023/10/18 11:44:30;;;;;;;15.27;14.77;;;16.90;99.90;;;;;;5019420;28;20485;-68
2023/10/18 11:47:03;;;;;;;15.13;14.63;;;17.10;99.90;;;;;;5018085;28;20978;-69
2023/10/18 11:49:38;;;;;;;15.00;14.50;;;17.40;99.90;;;;;;5006058;28;20465;-69
2023/10/18 11:52:05;;;;;;;14.90;14.40;;;17.70;99.90;;;;;;5013948;28;20462;-71
2023/10/18 11:54:33;;;;;;;14.90;14.40;;;17.80;99.90;;;;;;5008934;28;20520;-68
2023/10/18 11:57:05;;;;;;;15.37;14.87;;;18.40;99.90;;;;;;5018759;27;20505;-69
2023/10/18 11:59:50;;;;;;;14.57;14.10;;;18.60;99.90;;;;;;5013368;28;20468;-69
2023/10/18 12:02:17;;;;;;;14.70;14.20;;;18.90;99.90;;;;;;5023257;28;20492;-68
2023/10/18 12:04:45;;;;;;;15.00;14.50;;;19.20;99.90;;;;;;5004135;28;20498;-68
2023/10/18 12:07:13;;;;;;;14.53;14.13;;;19.10;99.90;;;;;;5013085;28;20525;-69
2023/10/18 12:09:51;;;;;;;14.27;13.87;;;19.00;99.90;;;;;;5022340;27;20799;-68
2023/10/18 12:12:20;;;;;;;14.43;14.03;;;18.80;99.90;;;;;;5008404;28;20469;-69
2023/10/18 12:14:49;;;;;;;14.77;14.27;;;19.00;99.90;;;;;;5013271;28;20496;-69
2023/10/18 12:17:17;;;;;;;14.60;14.13;;;18.80;99.90;;;;;;5014820;28;20458;-70
2023/10/18 12:19:44;;;;;;;14.97;14.47;;;18.60;99.90;;;;;;5015616;27;20824;-69
2023/10/18 12:22:15;;;;;;;14.57;14.13;;;18.50;99.90;;;;;;5010892;28;20470;-70
2023/10/18 12:24:42;;;;;;;14.27;13.87;;;18.50;99.90;;;;;;5009719;28;20468;-70
2023/10/18 12:27:33;;;;;;;13.47;13.07;;;18.30;99.90;;;;;;5015055;28;20891;-69
2023/10/18 12:30:09;;;;;;;13.03;12.70;;;18.50;99.90;;;;;;5015524;27;20469;-70
2023/10/18 12:32:42;;;;;;;14.30;13.90;;;18.60;99.90;;;;;;5012723;28;20453;-68
2023/10/18 12:35:13;;;;;;;13.83;13.43;;;18.60;99.90;;;;;;5010672;28;20508;-69
2023/10/18 12:37:41;;;;;;;13.53;13.13;;;18.70;99.90;;;;;;5021698;28;20483;-70
2023/10/18 12:40:27;;;;;;;13.10;12.70;;;19.00;99.90;;;;;;5017388;28;20564;-70
2023/10/18 12:42:57;;;;;;;14.30;13.90;;;19.10;99.90;;;;;;5013278;28;20465;-70
2023/10/18 12:45:25;;;;;;;12.90;12.50;;;18.80;99.90;;;;;;5022127;28;21002;-68
2023/10/18 12:47:53;;;;;;;12.83;12.53;;;18.80;99.90;;;;;;5024557;27;20967;-70
2023/10/18 12:50:26;;;;;;;12.60;12.30;;;18.60;99.90;;;;;;5017992;28;20540;-68
2023/10/18 12:52:55;;;;;;;13.13;12.73;;;18.30;99.90;;;;;;5020949;28;20675;-70
2023/10/18 12:55:33;;;;;;;13.10;12.70;;;18.50;99.90;;;;;;5017140;28;20534;-68
2023/10/18 12:58:00;;;;;;;12.57;12.27;;;18.30;99.90;;;;;;5018209;28;20470;-69
2023/10/18 13:00:34;;;;;;;13.90;13.50;;;18.10;99.90;;;;;;5017783;28;20471;-68
2023/10/18 13:03:21;;;;;;;13.63;13.23;;;17.90;99.90;;;;;;5020207;28;20452;-67